sensor_id;sensor_type;location;lat;lon;timestamp;P1;durP1;ratioP1;P2;durP2;ratioP2
48552;SDS011;34335;51.566;6.994;2023-05-07T00:01:37;6.55;;;4.22;;
48552;SDS011;34335;51.566;6.994;2023-05-07T00:04:02;6.18;;;3.80;;
48552;SDS011;34335;51.566;6.994;2023-05-07T00:06:28;9.10;;;4.20;;
48552;SDS011;34335;51.566;6.994;2023-05-07T00:08:54;9.23;;;3.67;;
48552;SDS011;34335;51.566;6.994;2023-05-07T00:11:19;7.85;;;4.18;;
48552;SDS011;34335;51.566;6.994;2023-05-07T00:13:45;5.72;;;3.40;;
48552;SDS011;34335;51.566;6.994;2023-05-07T00:16:11;8.32;;;4.38;;
48552;SDS011;34335;51.566;6.994;2023-05-07T00:18:37;8.65;;;4.00;;
48552;SDS011;34335;51.566;6.994;2023-05-07T00:21:02;7.30;;;4.15;;
48552;SDS011;34335;51.566;6.994;2023-05-07T00:23:27;8.00;;;4.15;;
48552;SDS011;34335;51.566;6.994;2023-05-07T00:25:53;7.22;;;4.25;;
48552;SDS011;34335;51.566;6.994;2023-05-07T00:28:18;7.10;;;4.25;;
48552;SDS011;34335;51.566;6.994;2023-05-07T00:30:43;8.83;;;4.03;;
48552;SDS011;34335;51.566;6.994;2023-05-07T00:33:09;7.10;;;4.50;;
48552;SDS011;34335;51.566;6.994;2023-05-07T00:35:34;7.50;;;3.75;;
48552;SDS011;34335;51.566;6.994;2023-05-07T00:37:59;8.80;;;5.18;;
48552;SDS011;34335;51.566;6.994;2023-05-07T00:40:25;8.05;;;5.00;;
48552;SDS011;34335;51.566;6.994;2023-05-07T00:42:50;8.85;;;4.63;;
48552;SDS011;34335;51.566;6.994;2023-05-07T00:45:21;6.82;;;3.92;;
48552;SDS011;34335;51.566;6.994;2023-05-07T00:47:50;8.07;;;4.47;;
48552;SDS011;34335;51.566;6.994;2023-05-07T00:50:15;10.85;;;4.82;;
48552;SDS011;34335;51.566;6.994;2023-05-07T00:52:42;7.75;;;4.50;;
48552;SDS011;34335;51.566;6.994;2023-05-07T00:55:07;10.95;;;5.15;;
48552;SDS011;34335;51.566;6.994;2023-05-07T00:57:35;11.88;;;5.20;;
48552;SDS011;34335;51.566;6.994;2023-05-07T01:00:03;7.40;;;4.57;;
48552;SDS011;34335;51.566;6.994;2023-05-07T01:02:29;10.05;;;4.75;;
48552;SDS011;34335;51.566;6.994;2023-05-07T01:04:54;9.25;;;4.82;;
48552;SDS011;34335;51.566;6.994;2023-05-07T01:07:20;7.07;;;4.43;;
48552;SDS011;34335;51.566;6.994;2023-05-07T01:09:47;9.48;;;5.10;;
48552;SDS011;34335;51.566;6.994;2023-05-07T01:12:13;10.27;;;5.22;;
48552;SDS011;34335;51.566;6.994;2023-05-07T01:14:38;8.43;;;5.13;;
48552;SDS011;34335;51.566;6.994;2023-05-07T01:17:03;7.68;;;5.13;;
48552;SDS011;34335;51.566;6.994;2023-05-07T01:19:29;10.52;;;5.43;;
48552;SDS011;34335;51.566;6.994;2023-05-07T01:21:55;12.07;;;6.00;;
48552;SDS011;34335;51.566;6.994;2023-05-07T01:24:28;7.95;;;5.57;;
48552;SDS011;34335;51.566;6.994;2023-05-07T01:26:54;9.35;;;5.18;;
48552;SDS011;34335;51.566;6.994;2023-05-07T01:29:19;10.25;;;5.88;;
48552;SDS011;34335;51.566;6.994;2023-05-07T01:31:44;7.47;;;4.90;;
48552;SDS011;34335;51.566;6.994;2023-05-07T01:34:12;10.27;;;5.90;;
48552;SDS011;34335;51.566;6.994;2023-05-07T01:36:39;10.77;;;5.65;;
48552;SDS011;34335;51.566;6.994;2023-05-07T01:39:07;9.60;;;5.72;;
48552;SDS011;34335;51.566;6.994;2023-05-07T01:41:33;7.38;;;4.68;;
48552;SDS011;34335;51.566;6.994;2023-05-07T01:43:59;9.75;;;5.28;;
48552;SDS011;34335;51.566;6.994;2023-05-07T01:46:26;12.30;;;6.30;;
48552;SDS011;34335;51.566;6.994;2023-05-07T01:48:52;8.18;;;4.85;;
48552;SDS011;34335;51.566;6.994;2023-05-07T01:51:17;10.63;;;5.75;;
48552;SDS011;34335;51.566;6.994;2023-05-07T01:53:44;8.00;;;5.28;;
48552;SDS011;34335;51.566;6.994;2023-05-07T01:56:12;8.25;;;4.57;;
48552;SDS011;34335;51.566;6.994;2023-05-07T01:58:38;9.60;;;4.97;;
48552;SDS011;34335;51.566;6.994;2023-05-07T02:01:03;7.83;;;4.37;;
48552;SDS011;34335;51.566;6.994;2023-05-07T02:03:28;8.97;;;5.20;;
48552;SDS011;34335;51.566;6.994;2023-05-07T02:05:53;8.73;;;5.20;;
48552;SDS011;34335;51.566;6.994;2023-05-07T02:08:19;7.10;;;4.70;;
48552;SDS011;34335;51.566;6.994;2023-05-07T02:10:44;9.27;;;5.10;;
48552;SDS011;34335;51.566;6.994;2023-05-07T02:13:09;8.10;;;5.20;;
48552;SDS011;34335;51.566;6.994;2023-05-07T02:15:34;11.03;;;6.57;;
48552;SDS011;34335;51.566;6.994;2023-05-07T02:18:07;9.40;;;5.47;;
48552;SDS011;34335;51.566;6.994;2023-05-07T02:22:59;7.78;;;4.70;;
48552;SDS011;34335;51.566;6.994;2023-05-07T02:25:25;9.05;;;5.63;;
48552;SDS011;34335;51.566;6.994;2023-05-07T02:27:50;12.25;;;5.75;;
48552;SDS011;34335;51.566;6.994;2023-05-07T02:30:16;11.30;;;5.78;;
48552;SDS011;34335;51.566;6.994;2023-05-07T02:32:41;10.32;;;5.88;;
48552;SDS011;34335;51.566;6.994;2023-05-07T02:35:07;7.50;;;5.07;;
48552;SDS011;34335;51.566;6.994;2023-05-07T02:37:32;9.20;;;5.50;;
48552;SDS011;34335;51.566;6.994;2023-05-07T02:39:57;9.77;;;5.53;;
48552;SDS011;34335;51.566;6.994;2023-05-07T02:42:23;11.30;;;5.63;;
48552;SDS011;34335;51.566;6.994;2023-05-07T02:44:48;9.40;;;5.63;;
48552;SDS011;34335;51.566;6.994;2023-05-07T02:47:14;9.40;;;5.40;;
48552;SDS011;34335;51.566;6.994;2023-05-07T02:49:40;8.80;;;4.90;;
48552;SDS011;34335;51.566;6.994;2023-05-07T02:52:05;11.75;;;5.72;;
48552;SDS011;34335;51.566;6.994;2023-05-07T02:54:31;11.40;;;6.22;;
48552;SDS011;34335;51.566;6.994;2023-05-07T02:56:56;8.82;;;5.43;;
48552;SDS011;34335;51.566;6.994;2023-05-07T02:59:22;9.95;;;6.07;;
48552;SDS011;34335;51.566;6.994;2023-05-07T03:01:48;13.30;;;6.55;;
48552;SDS011;34335;51.566;6.994;2023-05-07T03:04:13;17.03;;;6.53;;
48552;SDS011;34335;51.566;6.994;2023-05-07T03:06:38;11.73;;;6.47;;
48552;SDS011;34335;51.566;6.994;2023-05-07T03:09:04;10.95;;;5.72;;
48552;SDS011;34335;51.566;6.994;2023-05-07T03:11:29;12.15;;;6.97;;
48552;SDS011;34335;51.566;6.994;2023-05-07T03:13:55;10.45;;;5.82;;
48552;SDS011;34335;51.566;6.994;2023-05-07T03:16:20;11.00;;;5.50;;
48552;SDS011;34335;51.566;6.994;2023-05-07T03:18:45;11.57;;;6.07;;
48552;SDS011;34335;51.566;6.994;2023-05-07T03:21:11;13.73;;;6.38;;
48552;SDS011;34335;51.566;6.994;2023-05-07T03:23:36;9.57;;;5.85;;
48552;SDS011;34335;51.566;6.994;2023-05-07T03:26:01;11.75;;;6.00;;
48552;SDS011;34335;51.566;6.994;2023-05-07T03:28:26;9.20;;;5.47;;
48552;SDS011;34335;51.566;6.994;2023-05-07T03:30:52;9.10;;;5.47;;
48552;SDS011;34335;51.566;6.994;2023-05-07T03:33:17;10.88;;;5.57;;
48552;SDS011;34335;51.566;6.994;2023-05-07T03:35:43;15.32;;;5.97;;
48552;SDS011;34335;51.566;6.994;2023-05-07T03:38:08;10.60;;;5.80;;
48552;SDS011;34335;51.566;6.994;2023-05-07T03:40:33;11.00;;;6.13;;
48552;SDS011;34335;51.566;6.994;2023-05-07T03:42:59;10.53;;;6.40;;
48552;SDS011;34335;51.566;6.994;2023-05-07T03:45:25;11.57;;;6.20;;
48552;SDS011;34335;51.566;6.994;2023-05-07T03:47:50;13.60;;;6.30;;
48552;SDS011;34335;51.566;6.994;2023-05-07T03:50:16;9.93;;;5.78;;
48552;SDS011;34335;51.566;6.994;2023-05-07T03:52:41;11.17;;;6.73;;
48552;SDS011;34335;51.566;6.994;2023-05-07T03:55:06;10.83;;;6.63;;
48552;SDS011;34335;51.566;6.994;2023-05-07T03:57:32;12.27;;;6.18;;
48552;SDS011;34335;51.566;6.994;2023-05-07T03:59:57;10.23;;;6.10;;
48552;SDS011;34335;51.566;6.994;2023-05-07T04:02:23;8.68;;;5.40;;
48552;SDS011;34335;51.566;6.994;2023-05-07T04:04:48;9.57;;;5.87;;
48552;SDS011;34335;51.566;6.994;2023-05-07T04:07:14;10.90;;;5.43;;
48552;SDS011;34335;51.566;6.994;2023-05-07T04:09:40;11.02;;;5.72;;
48552;SDS011;34335;51.566;6.994;2023-05-07T04:12:05;9.85;;;5.75;;
48552;SDS011;34335;51.566;6.994;2023-05-07T04:14:30;10.00;;;5.40;;
48552;SDS011;34335;51.566;6.994;2023-05-07T04:16:57;9.02;;;5.00;;
48552;SDS011;34335;51.566;6.994;2023-05-07T04:19:23;9.40;;;5.55;;
48552;SDS011;34335;51.566;6.994;2023-05-07T04:21:48;8.97;;;5.17;;
48552;SDS011;34335;51.566;6.994;2023-05-07T04:24:13;9.67;;;5.50;;
48552;SDS011;34335;51.566;6.994;2023-05-07T04:26:38;9.20;;;5.75;;
48552;SDS011;34335;51.566;6.994;2023-05-07T04:29:05;9.60;;;5.30;;
48552;SDS011;34335;51.566;6.994;2023-05-07T04:31:30;10.03;;;5.10;;
48552;SDS011;34335;51.566;6.994;2023-05-07T04:33:55;11.07;;;5.55;;
48552;SDS011;34335;51.566;6.994;2023-05-07T04:36:21;9.07;;;5.80;;
48552;SDS011;34335;51.566;6.994;2023-05-07T04:38:46;8.55;;;5.25;;
48552;SDS011;34335;51.566;6.994;2023-05-07T04:41:12;9.83;;;5.13;;
48552;SDS011;34335;51.566;6.994;2023-05-07T04:43:37;11.73;;;5.18;;
48552;SDS011;34335;51.566;6.994;2023-05-07T04:46:03;8.10;;;5.50;;
48552;SDS011;34335;51.566;6.994;2023-05-07T04:48:28;10.10;;;5.72;;
48552;SDS011;34335;51.566;6.994;2023-05-07T04:50:54;7.65;;;4.55;;
48552;SDS011;34335;51.566;6.994;2023-05-07T04:53:19;7.47;;;4.43;;
48552;SDS011;34335;51.566;6.994;2023-05-07T04:55:45;9.32;;;5.13;;
48552;SDS011;34335;51.566;6.994;2023-05-07T04:58:11;11.48;;;4.72;;
48552;SDS011;34335;51.566;6.994;2023-05-07T05:00:37;7.20;;;4.35;;
48552;SDS011;34335;51.566;6.994;2023-05-07T05:03:03;7.35;;;3.92;;
48552;SDS011;34335;51.566;6.994;2023-05-07T05:05:28;8.53;;;4.57;;
48552;SDS011;34335;51.566;6.994;2023-05-07T05:07:53;8.20;;;5.00;;
48552;SDS011;34335;51.566;6.994;2023-05-07T05:10:19;6.93;;;4.30;;
48552;SDS011;34335;51.566;6.994;2023-05-07T05:12:44;6.63;;;3.97;;
48552;SDS011;34335;51.566;6.994;2023-05-07T05:15:11;7.78;;;4.63;;
48552;SDS011;34335;51.566;6.994;2023-05-07T05:17:36;6.57;;;4.35;;
48552;SDS011;34335;51.566;6.994;2023-05-07T05:20:02;8.55;;;4.72;;
48552;SDS011;34335;51.566;6.994;2023-05-07T05:22:27;9.55;;;3.67;;
48552;SDS011;34335;51.566;6.994;2023-05-07T05:24:55;8.30;;;4.22;;
48552;SDS011;34335;51.566;6.994;2023-05-07T05:27:21;14.48;;;5.30;;
48552;SDS011;34335;51.566;6.994;2023-05-07T05:29:46;7.77;;;4.17;;
48552;SDS011;34335;51.566;6.994;2023-05-07T05:32:11;12.33;;;4.40;;
48552;SDS011;34335;51.566;6.994;2023-05-07T05:34:36;6.23;;;4.00;;
48552;SDS011;34335;51.566;6.994;2023-05-07T05:37:02;10.07;;;4.50;;
48552;SDS011;34335;51.566;6.994;2023-05-07T05:39:27;7.90;;;4.22;;
48552;SDS011;34335;51.566;6.994;2023-05-07T05:41:52;6.95;;;4.28;;
48552;SDS011;34335;51.566;6.994;2023-05-07T05:44:18;7.27;;;3.63;;
48552;SDS011;34335;51.566;6.994;2023-05-07T05:46:43;10.40;;;4.10;;
48552;SDS011;34335;51.566;6.994;2023-05-07T05:49:08;8.20;;;3.72;;
48552;SDS011;34335;51.566;6.994;2023-05-07T05:51:34;7.18;;;4.22;;
48552;SDS011;34335;51.566;6.994;2023-05-07T05:53:59;6.73;;;3.97;;
48552;SDS011;34335;51.566;6.994;2023-05-07T05:56:24;9.27;;;4.47;;
48552;SDS011;34335;51.566;6.994;2023-05-07T05:58:50;6.63;;;3.33;;
48552;SDS011;34335;51.566;6.994;2023-05-07T06:01:16;7.03;;;3.65;;
48552;SDS011;34335;51.566;6.994;2023-05-07T06:03:42;7.07;;;3.78;;
48552;SDS011;34335;51.566;6.994;2023-05-07T06:06:07;5.57;;;2.97;;
48552;SDS011;34335;51.566;6.994;2023-05-07T06:08:33;6.63;;;3.33;;
48552;SDS011;34335;51.566;6.994;2023-05-07T06:10:58;8.53;;;3.33;;
48552;SDS011;34335;51.566;6.994;2023-05-07T06:13:24;7.55;;;3.30;;
48552;SDS011;34335;51.566;6.994;2023-05-07T06:15:49;5.43;;;3.17;;
48552;SDS011;34335;51.566;6.994;2023-05-07T06:18:15;6.10;;;3.08;;
48552;SDS011;34335;51.566;6.994;2023-05-07T06:20:40;4.73;;;2.57;;
48552;SDS011;34335;51.566;6.994;2023-05-07T06:23:06;8.15;;;3.65;;
48552;SDS011;34335;51.566;6.994;2023-05-07T06:25:31;8.67;;;4.00;;
48552;SDS011;34335;51.566;6.994;2023-05-07T06:27:56;4.70;;;2.73;;
48552;SDS011;34335;51.566;6.994;2023-05-07T06:30:21;7.40;;;3.50;;
48552;SDS011;34335;51.566;6.994;2023-05-07T06:32:47;11.13;;;3.45;;
48552;SDS011;34335;51.566;6.994;2023-05-07T06:35:12;4.80;;;2.57;;
48552;SDS011;34335;51.566;6.994;2023-05-07T06:37:38;5.20;;;2.67;;
48552;SDS011;34335;51.566;6.994;2023-05-07T06:40:05;5.25;;;3.13;;
48552;SDS011;34335;51.566;6.994;2023-05-07T06:42:32;7.03;;;3.28;;
48552;SDS011;34335;51.566;6.994;2023-05-07T06:44:57;6.05;;;2.78;;
48552;SDS011;34335;51.566;6.994;2023-05-07T06:47:22;4.97;;;2.90;;
48552;SDS011;34335;51.566;6.994;2023-05-07T06:49:47;5.37;;;2.87;;
48552;SDS011;34335;51.566;6.994;2023-05-07T06:52:13;4.80;;;2.73;;
48552;SDS011;34335;51.566;6.994;2023-05-07T06:54:38;5.93;;;2.67;;
48552;SDS011;34335;51.566;6.994;2023-05-07T06:57:03;4.20;;;2.30;;
48552;SDS011;34335;51.566;6.994;2023-05-07T06:59:28;4.90;;;2.83;;
48552;SDS011;34335;51.566;6.994;2023-05-07T07:01:54;4.50;;;2.33;;
48552;SDS011;34335;51.566;6.994;2023-05-07T07:04:19;5.10;;;2.53;;
48552;SDS011;34335;51.566;6.994;2023-05-07T07:06:47;5.38;;;2.85;;
48552;SDS011;34335;51.566;6.994;2023-05-07T07:09:12;5.30;;;2.87;;
48552;SDS011;34335;51.566;6.994;2023-05-07T07:11:37;5.03;;;3.17;;
48552;SDS011;34335;51.566;6.994;2023-05-07T07:14:03;4.37;;;2.83;;
48552;SDS011;34335;51.566;6.994;2023-05-07T07:16:29;5.45;;;2.55;;
48552;SDS011;34335;51.566;6.994;2023-05-07T07:18:55;3.72;;;2.20;;
48552;SDS011;34335;51.566;6.994;2023-05-07T07:21:20;6.50;;;2.70;;
48552;SDS011;34335;51.566;6.994;2023-05-07T07:23:45;3.53;;;2.20;;
48552;SDS011;34335;51.566;6.994;2023-05-07T07:26:11;4.43;;;2.30;;
48552;SDS011;34335;51.566;6.994;2023-05-07T07:28:41;4.85;;;2.40;;
48552;SDS011;34335;51.566;6.994;2023-05-07T07:31:08;5.25;;;2.33;;
48552;SDS011;34335;51.566;6.994;2023-05-07T07:33:33;4.13;;;2.33;;
48552;SDS011;34335;51.566;6.994;2023-05-07T07:35:58;5.30;;;2.30;;
48552;SDS011;34335;51.566;6.994;2023-05-07T07:38:23;4.17;;;2.50;;
48552;SDS011;34335;51.566;6.994;2023-05-07T07:40:49;4.10;;;2.30;;
48552;SDS011;34335;51.566;6.994;2023-05-07T07:43:14;4.68;;;1.88;;
48552;SDS011;34335;51.566;6.994;2023-05-07T07:45:39;5.70;;;3.13;;
48552;SDS011;34335;51.566;6.994;2023-05-07T07:48:05;4.80;;;2.35;;
48552;SDS011;34335;51.566;6.994;2023-05-07T07:50:30;3.93;;;2.10;;
48552;SDS011;34335;51.566;6.994;2023-05-07T07:52:55;5.20;;;2.80;;
48552;SDS011;34335;51.566;6.994;2023-05-07T07:55:22;8.50;;;2.97;;
48552;SDS011;34335;51.566;6.994;2023-05-07T07:57:48;5.22;;;2.92;;
48552;SDS011;34335;51.566;6.994;2023-05-07T08:00:14;5.22;;;2.80;;
48552;SDS011;34335;51.566;6.994;2023-05-07T08:02:41;3.10;;;2.08;;
48552;SDS011;34335;51.566;6.994;2023-05-07T08:05:06;4.10;;;2.07;;
48552;SDS011;34335;51.566;6.994;2023-05-07T08:07:32;5.82;;;2.92;;
48552;SDS011;34335;51.566;6.994;2023-05-07T08:09:58;5.43;;;3.17;;
48552;SDS011;34335;51.566;6.994;2023-05-07T08:12:23;3.90;;;2.23;;
48552;SDS011;34335;51.566;6.994;2023-05-07T08:14:48;8.02;;;3.13;;
48552;SDS011;34335;51.566;6.994;2023-05-07T08:17:13;4.20;;;2.47;;
48552;SDS011;34335;51.566;6.994;2023-05-07T08:19:40;4.85;;;2.55;;
48552;SDS011;34335;51.566;6.994;2023-05-07T08:22:06;5.22;;;2.97;;
48552;SDS011;34335;51.566;6.994;2023-05-07T08:24:31;6.47;;;3.40;;
48552;SDS011;34335;51.566;6.994;2023-05-07T08:26:56;5.67;;;3.53;;
48552;SDS011;34335;51.566;6.994;2023-05-07T08:29:22;7.13;;;3.77;;
48552;SDS011;34335;51.566;6.994;2023-05-07T08:31:47;5.50;;;3.42;;
48552;SDS011;34335;51.566;6.994;2023-05-07T08:34:12;5.43;;;3.20;;
48552;SDS011;34335;51.566;6.994;2023-05-07T08:36:38;7.10;;;4.25;;
48552;SDS011;34335;51.566;6.994;2023-05-07T08:39:03;8.10;;;2.90;;
48552;SDS011;34335;51.566;6.994;2023-05-07T08:41:28;7.60;;;3.20;;
48552;SDS011;34335;51.566;6.994;2023-05-07T08:43:54;6.35;;;3.83;;
48552;SDS011;34335;51.566;6.994;2023-05-07T08:46:23;8.65;;;3.65;;
48552;SDS011;34335;51.566;6.994;2023-05-07T08:48:50;4.07;;;2.58;;
48552;SDS011;34335;51.566;6.994;2023-05-07T08:51:20;6.05;;;3.42;;
48552;SDS011;34335;51.566;6.994;2023-05-07T08:53:46;7.82;;;3.85;;
48552;SDS011;34335;51.566;6.994;2023-05-07T08:56:16;6.30;;;3.28;;
48552;SDS011;34335;51.566;6.994;2023-05-07T08:58:42;6.38;;;3.30;;
48552;SDS011;34335;51.566;6.994;2023-05-07T09:01:09;6.88;;;3.50;;
48552;SDS011;34335;51.566;6.994;2023-05-07T09:03:37;6.13;;;3.53;;
48552;SDS011;34335;51.566;6.994;2023-05-07T09:06:04;7.50;;;3.67;;
48552;SDS011;34335;51.566;6.994;2023-05-07T09:08:29;5.57;;;3.45;;
48552;SDS011;34335;51.566;6.994;2023-05-07T09:10:55;5.97;;;3.67;;
48552;SDS011;34335;51.566;6.994;2023-05-07T09:13:20;8.57;;;4.33;;
48552;SDS011;34335;51.566;6.994;2023-05-07T09:15:45;7.47;;;3.78;;
48552;SDS011;34335;51.566;6.994;2023-05-07T09:18:12;7.40;;;4.20;;
48552;SDS011;34335;51.566;6.994;2023-05-07T09:20:37;7.30;;;3.53;;
48552;SDS011;34335;51.566;6.994;2023-05-07T09:23:03;5.20;;;2.60;;
48552;SDS011;34335;51.566;6.994;2023-05-07T09:25:29;9.77;;;4.78;;
48552;SDS011;34335;51.566;6.994;2023-05-07T09:27:55;6.95;;;4.25;;
48552;SDS011;34335;51.566;6.994;2023-05-07T09:30:20;7.07;;;4.43;;
48552;SDS011;34335;51.566;6.994;2023-05-07T09:32:46;7.40;;;3.67;;
48552;SDS011;34335;51.566;6.994;2023-05-07T09:35:15;6.97;;;3.70;;
48552;SDS011;34335;51.566;6.994;2023-05-07T09:37:41;6.15;;;3.25;;
48552;SDS011;34335;51.566;6.994;2023-05-07T09:40:07;4.57;;;2.55;;
48552;SDS011;34335;51.566;6.994;2023-05-07T09:42:34;7.80;;;3.88;;
48552;SDS011;34335;51.566;6.994;2023-05-07T09:44:59;6.30;;;3.03;;
48552;SDS011;34335;51.566;6.994;2023-05-07T09:47:25;5.22;;;3.22;;
48552;SDS011;34335;51.566;6.994;2023-05-07T09:49:58;8.80;;;3.70;;
48552;SDS011;34335;51.566;6.994;2023-05-07T09:52:26;5.97;;;3.47;;
48552;SDS011;34335;51.566;6.994;2023-05-07T09:54:58;6.05;;;3.50;;
48552;SDS011;34335;51.566;6.994;2023-05-07T09:57:25;5.13;;;2.83;;
48552;SDS011;34335;51.566;6.994;2023-05-07T09:59:50;7.80;;;3.40;;
48552;SDS011;34335;51.566;6.994;2023-05-07T10:02:18;7.32;;;4.30;;
48552;SDS011;34335;51.566;6.994;2023-05-07T10:04:45;6.95;;;3.65;;
48552;SDS011;34335;51.566;6.994;2023-05-07T10:07:11;7.72;;;3.25;;
48552;SDS011;34335;51.566;6.994;2023-05-07T10:09:39;7.10;;;3.28;;
48552;SDS011;34335;51.566;6.994;2023-05-07T10:12:07;5.32;;;2.45;;
48552;SDS011;34335;51.566;6.994;2023-05-07T10:14:32;7.30;;;3.53;;
48552;SDS011;34335;51.566;6.994;2023-05-07T10:16:58;4.18;;;2.30;;
48552;SDS011;34335;51.566;6.994;2023-05-07T10:19:25;6.43;;;2.63;;
48552;SDS011;34335;51.566;6.994;2023-05-07T10:21:54;4.57;;;2.08;;
48552;SDS011;34335;51.566;6.994;2023-05-07T10:24:28;6.90;;;3.35;;
48552;SDS011;34335;51.566;6.994;2023-05-07T10:26:56;5.25;;;2.60;;
48552;SDS011;34335;51.566;6.994;2023-05-07T10:29:30;3.83;;;2.00;;
48552;SDS011;34335;51.566;6.994;2023-05-07T10:35:03;5.00;;;2.33;;
48552;SDS011;34335;51.566;6.994;2023-05-07T10:37:31;5.68;;;2.60;;
48552;SDS011;34335;51.566;6.994;2023-05-07T10:39:57;5.00;;;2.50;;
48552;SDS011;34335;51.566;6.994;2023-05-07T10:42:23;3.97;;;2.08;;
48552;SDS011;34335;51.566;6.994;2023-05-07T10:44:49;3.92;;;1.65;;
48552;SDS011;34335;51.566;6.994;2023-05-07T10:47:15;3.08;;;1.48;;
48552;SDS011;34335;51.566;6.994;2023-05-07T10:52:11;3.00;;;1.53;;
48552;SDS011;34335;51.566;6.994;2023-05-07T10:54:38;3.53;;;1.88;;
48552;SDS011;34335;51.566;6.994;2023-05-07T10:59:56;3.65;;;1.40;;
48552;SDS011;34335;51.566;6.994;2023-05-07T11:02:22;3.17;;;1.38;;
48552;SDS011;34335;51.566;6.994;2023-05-07T11:07:44;3.75;;;1.88;;
48552;SDS011;34335;51.566;6.994;2023-05-07T11:10:20;3.05;;;1.42;;
48552;SDS011;34335;51.566;6.994;2023-05-07T11:12:46;3.72;;;1.73;;
48552;SDS011;34335;51.566;6.994;2023-05-07T11:15:15;2.80;;;1.55;;
48552;SDS011;34335;51.566;6.994;2023-05-07T11:17:59;3.45;;;1.20;;
48552;SDS011;34335;51.566;6.994;2023-05-07T11:28:30;3.77;;;1.57;;
48552;SDS011;34335;51.566;6.994;2023-05-07T11:30:56;3.78;;;1.73;;
48552;SDS011;34335;51.566;6.994;2023-05-07T11:33:22;3.22;;;1.50;;
48552;SDS011;34335;51.566;6.994;2023-05-07T11:35:50;3.70;;;1.40;;
48552;SDS011;34335;51.566;6.994;2023-05-07T11:38:17;2.50;;;1.40;;
48552;SDS011;34335;51.566;6.994;2023-05-07T11:40:52;2.45;;;1.40;;
48552;SDS011;34335;51.566;6.994;2023-05-07T11:43:20;5.50;;;1.73;;
48552;SDS011;34335;51.566;6.994;2023-05-07T11:45:45;2.57;;;1.40;;
48552;SDS011;34335;51.566;6.994;2023-05-07T11:48:15;7.45;;;2.58;;
48552;SDS011;34335;51.566;6.994;2023-05-07T11:50:49;2.55;;;1.35;;
48552;SDS011;34335;51.566;6.994;2023-05-07T11:53:19;2.15;;;1.08;;
48552;SDS011;34335;51.566;6.994;2023-05-07T11:55:46;5.72;;;1.80;;
48552;SDS011;34335;51.566;6.994;2023-05-07T11:58:12;4.55;;;1.58;;
48552;SDS011;34335;51.566;6.994;2023-05-07T12:00:38;3.70;;;2.13;;
48552;SDS011;34335;51.566;6.994;2023-05-07T12:03:06;3.63;;;1.83;;
48552;SDS011;34335;51.566;6.994;2023-05-07T12:05:31;3.22;;;1.65;;
48552;SDS011;34335;51.566;6.994;2023-05-07T12:07:59;4.70;;;2.20;;
48552;SDS011;34335;51.566;6.994;2023-05-07T12:10:25;2.83;;;1.42;;
48552;SDS011;34335;51.566;6.994;2023-05-07T12:12:50;4.55;;;2.33;;
48552;SDS011;34335;51.566;6.994;2023-05-07T12:15:16;6.37;;;1.90;;
48552;SDS011;34335;51.566;6.994;2023-05-07T12:17:42;3.35;;;1.90;;
48552;SDS011;34335;51.566;6.994;2023-05-07T12:20:08;2.92;;;1.55;;
48552;SDS011;34335;51.566;6.994;2023-05-07T12:22:35;4.18;;;1.75;;
48552;SDS011;34335;51.566;6.994;2023-05-07T12:25:01;3.17;;;1.90;;
48552;SDS011;34335;51.566;6.994;2023-05-07T12:27:27;4.30;;;2.10;;
48552;SDS011;34335;51.566;6.994;2023-05-07T12:29:52;3.00;;;1.50;;
48552;SDS011;34335;51.566;6.994;2023-05-07T12:32:18;2.65;;;1.25;;
48552;SDS011;34335;51.566;6.994;2023-05-07T12:34:45;5.05;;;2.35;;
48552;SDS011;34335;51.566;6.994;2023-05-07T12:37:12;3.92;;;2.30;;
48552;SDS011;34335;51.566;6.994;2023-05-07T12:39:38;3.90;;;1.95;;
48552;SDS011;34335;51.566;6.994;2023-05-07T12:42:08;6.20;;;2.45;;
48552;SDS011;34335;51.566;6.994;2023-05-07T12:44:40;1.73;;;1.10;;
48552;SDS011;34335;51.566;6.994;2023-05-07T12:47:06;5.72;;;1.70;;
48552;SDS011;34335;51.566;6.994;2023-05-07T12:49:34;3.45;;;1.67;;
48552;SDS011;34335;51.566;6.994;2023-05-07T12:52:02;4.95;;;1.73;;
48552;SDS011;34335;51.566;6.994;2023-05-07T12:54:31;5.72;;;2.00;;
48552;SDS011;34335;51.566;6.994;2023-05-07T12:57:01;4.82;;;2.35;;
48552;SDS011;34335;51.566;6.994;2023-05-07T12:59:32;6.10;;;2.70;;
48552;SDS011;34335;51.566;6.994;2023-05-07T13:01:57;4.50;;;2.28;;
48552;SDS011;34335;51.566;6.994;2023-05-07T13:04:24;5.30;;;2.33;;
48552;SDS011;34335;51.566;6.994;2023-05-07T13:06:50;7.10;;;2.88;;
48552;SDS011;34335;51.566;6.994;2023-05-07T13:09:15;4.20;;;2.63;;
48552;SDS011;34335;51.566;6.994;2023-05-07T13:11:40;3.63;;;2.10;;
48552;SDS011;34335;51.566;6.994;2023-05-07T13:14:05;5.87;;;3.17;;
48552;SDS011;34335;51.566;6.994;2023-05-07T13:16:31;7.33;;;2.67;;
48552;SDS011;34335;51.566;6.994;2023-05-07T13:18:56;5.20;;;2.53;;
48552;SDS011;34335;51.566;6.994;2023-05-07T13:21:21;7.10;;;3.13;;
48552;SDS011;34335;51.566;6.994;2023-05-07T13:23:46;5.97;;;2.70;;
48552;SDS011;34335;51.566;6.994;2023-05-07T13:26:12;7.07;;;3.37;;
48552;SDS011;34335;51.566;6.994;2023-05-07T13:28:37;5.87;;;2.97;;
48552;SDS011;34335;51.566;6.994;2023-05-07T13:31:02;5.47;;;2.80;;
48552;SDS011;34335;51.566;6.994;2023-05-07T13:33:27;5.17;;;3.10;;
48552;SDS011;34335;51.566;6.994;2023-05-07T13:35:53;7.03;;;3.13;;
48552;SDS011;34335;51.566;6.994;2023-05-07T13:38:18;4.28;;;2.53;;
48552;SDS011;34335;51.566;6.994;2023-05-07T13:40:43;4.57;;;2.57;;
48552;SDS011;34335;51.566;6.994;2023-05-07T13:43:09;3.93;;;2.60;;
48552;SDS011;34335;51.566;6.994;2023-05-07T13:45:35;4.40;;;2.63;;
48552;SDS011;34335;51.566;6.994;2023-05-07T13:48:00;5.50;;;2.90;;
48552;SDS011;34335;51.566;6.994;2023-05-07T13:50:26;5.80;;;2.83;;
48552;SDS011;34335;51.566;6.994;2023-05-07T13:52:54;7.75;;;3.50;;
48552;SDS011;34335;51.566;6.994;2023-05-07T13:55:20;5.38;;;2.60;;
48552;SDS011;34335;51.566;6.994;2023-05-07T13:57:47;5.82;;;3.40;;
48552;SDS011;34335;51.566;6.994;2023-05-07T14:00:13;8.32;;;3.22;;
48552;SDS011;34335;51.566;6.994;2023-05-07T14:02:39;5.78;;;2.85;;
48552;SDS011;34335;51.566;6.994;2023-05-07T14:05:05;5.90;;;3.58;;
48552;SDS011;34335;51.566;6.994;2023-05-07T14:07:30;4.70;;;2.67;;
48552;SDS011;34335;51.566;6.994;2023-05-07T14:09:56;5.85;;;3.20;;
48552;SDS011;34335;51.566;6.994;2023-05-07T14:12:22;6.60;;;3.17;;
48552;SDS011;34335;51.566;6.994;2023-05-07T14:14:47;6.63;;;3.50;;
48552;SDS011;34335;51.566;6.994;2023-05-07T14:17:14;5.40;;;2.80;;
48552;SDS011;34335;51.566;6.994;2023-05-07T14:19:40;6.80;;;3.58;;
48552;SDS011;34335;51.566;6.994;2023-05-07T14:22:05;5.77;;;2.67;;
48552;SDS011;34335;51.566;6.994;2023-05-07T14:24:31;6.18;;;3.30;;
48552;SDS011;34335;51.566;6.994;2023-05-07T14:27:15;4.53;;;3.08;;
48552;SDS011;34335;51.566;6.994;2023-05-07T14:29:41;9.75;;;3.35;;
48552;SDS011;34335;51.566;6.994;2023-05-07T14:32:07;5.30;;;3.17;;
48552;SDS011;34335;51.566;6.994;2023-05-07T14:34:32;5.78;;;3.03;;
48552;SDS011;34335;51.566;6.994;2023-05-07T14:36:59;6.80;;;3.40;;
48552;SDS011;34335;51.566;6.994;2023-05-07T14:39:24;5.70;;;3.00;;
48552;SDS011;34335;51.566;6.994;2023-05-07T14:41:50;6.32;;;3.60;;
48552;SDS011;34335;51.566;6.994;2023-05-07T14:44:16;9.35;;;3.72;;
48552;SDS011;34335;51.566;6.994;2023-05-07T14:46:41;6.45;;;3.45;;
48552;SDS011;34335;51.566;6.994;2023-05-07T14:49:07;6.93;;;3.80;;
48552;SDS011;34335;51.566;6.994;2023-05-07T14:51:38;6.70;;;3.92;;
48552;SDS011;34335;51.566;6.994;2023-05-07T14:54:04;6.97;;;3.20;;
48552;SDS011;34335;51.566;6.994;2023-05-07T14:56:29;6.10;;;3.25;;
48552;SDS011;34335;51.566;6.994;2023-05-07T14:58:54;6.63;;;3.13;;
48552;SDS011;34335;51.566;6.994;2023-05-07T15:01:20;6.90;;;2.90;;